createdAt,value
2022-12-26T00:03:01.789Z,99788.81
2022-12-26T00:06:04.079Z,99789.06
2022-12-26T00:09:06.878Z,99799.19
2022-12-26T00:12:08.808Z,99792.28
2022-12-26T00:15:10.872Z,99794.22
2022-12-26T00:18:12.849Z,99796.16
2022-12-26T00:21:16.207Z,99783.22
2022-12-26T00:24:18.050Z,99793.84
2022-12-26T00:27:20.237Z,99793.84
2022-12-26T00:30:22.559Z,99801.69
2022-12-26T00:33:24.620Z,99804.34
2022-12-26T00:36:32.857Z,99802.66
2022-12-26T00:39:34.710Z,99808.44
2022-12-26T00:42:36.486Z,99813.53
2022-12-26T00:45:38.336Z,99807.25
2022-12-26T00:48:40.213Z,99812.69
2022-12-26T00:51:42.050Z,99815.00
2022-12-26T00:54:43.896Z,99815.72
2022-12-26T00:57:45.796Z,99815.84
2022-12-26T01:00:48.361Z,99815.84
2022-12-26T01:03:51.153Z,99812.22
2022-12-26T01:06:52.996Z,99814.75
2022-12-26T01:09:54.900Z,99816.56
2022-12-26T01:12:56.755Z,99816.69
2022-12-26T01:15:58.654Z,99823.69
2022-12-26T01:19:00.593Z,99814.63
2022-12-26T01:22:03.637Z,99812.84
2022-12-26T01:25:06.101Z,99809.44
2022-12-26T01:28:08.144Z,99811.25
2022-12-26T01:31:09.978Z,99811.38
2022-12-26T01:34:11.929Z,99823.06
2022-12-26T01:37:14.716Z,99822.09
2022-12-26T01:40:16.727Z,99823.06
2022-12-26T01:43:18.574Z,99821.25
2022-12-26T01:46:31.215Z,99818.00
2022-12-26T01:49:41.996Z,99817.16
2022-12-26T01:52:47.198Z,99817.38
2022-12-26T01:55:59.236Z,99817.59
2022-12-26T01:59:15.402Z,99821.00
2022-12-26T02:02:19.418Z,99817.38
2022-12-26T02:05:35.261Z,99820.25
2022-12-26T02:08:39.158Z,99809.88
2022-12-26T02:11:48.758Z,99810.84
2022-12-26T02:15:13.932Z,99817.94
2022-12-26T02:18:15.776Z,99817.84
2022-12-26T02:21:49.922Z,99822.53
2022-12-26T02:25:11.292Z,99822.53
2022-12-26T02:28:25.915Z,99820.94
2022-12-26T02:31:55.374Z,99825.41
2022-12-26T02:35:06.091Z,99817.44
2022-12-26T02:38:21.926Z,99821.91
2022-12-26T02:41:32.449Z,99829.13
2022-12-26T02:45:33.633Z,99825.53
2022-12-26T02:48:44.301Z,99832.75
2022-12-26T02:52:16.890Z,99820.44
2022-12-26T02:56:00.698Z,99819.94
2022-12-26T02:59:54.527Z,99821.13
2022-12-26T03:03:40.940Z,99824.53
2022-12-26T03:07:06.803Z,99815.09
2022-12-26T03:10:38.585Z,99819.56
2022-12-26T03:13:42.013Z,99826.66
2022-12-26T03:17:08.628Z,99833.66
2022-12-26T03:20:20.907Z,99839.69
2022-12-26T03:23:23.083Z,99837.91
2022-12-26T03:26:41.083Z,99839.47
2022-12-26T03:30:21.414Z,99842.13
2022-12-26T03:33:43.410Z,99843.09
2022-12-26T03:37:03.658Z,99846.34
2022-12-26T03:41:05.392Z,99848.28
2022-12-26T03:44:55.476Z,99859.97
2022-12-26T03:48:33.292Z,99855.00
2022-12-26T03:52:05.487Z,99858.84
2022-12-26T03:55:37.901Z,99858.22
2022-12-26T03:59:29.331Z,99860.34
2022-12-26T04:02:52.461Z,99858.88
2022-12-26T04:06:16.038Z,99858.78
2022-12-26T04:09:53.511Z,99866.22
2022-12-26T04:13:16.855Z,99863.66
2022-12-26T04:16:54.148Z,99862.94
2022-12-26T04:20:01.956Z,99864.53
2022-12-26T04:23:41.916Z,99869.09
2022-12-26T04:27:06.380Z,99877.66
2022-12-26T04:30:27.192Z,99871.41
2022-12-26T04:33:58.805Z,99865.75
2022-12-26T04:37:23.754Z,99874.69
2022-12-26T04:40:49.381Z,99883.38
2022-12-26T04:44:25.400Z,99886.88
2022-12-26T04:47:27.318Z,99881.69
2022-12-26T04:50:29.800Z,99876.16
2022-12-26T04:53:31.696Z,99880.59
2022-12-26T04:56:33.888Z,99875.53
2022-12-26T04:59:35.836Z,99880.09
2022-12-26T05:02:56.703Z,99878.50
2022-12-26T05:06:17.284Z,99872.47
2022-12-26T05:09:35.287Z,99879.69
2022-12-26T05:12:37.134Z,99889.66
2022-12-26T05:15:57.808Z,99887.97
2022-12-26T05:19:18.126Z,99888.31
2022-12-26T05:22:39.726Z,99892.25
2022-12-26T05:26:03.260Z,99892.75
2022-12-26T05:29:05.329Z,99897.75
2022-12-26T05:32:07.200Z,99901.03
2022-12-26T05:35:09.311Z,99906.97
2022-12-26T05:38:11.950Z,99906.88
2022-12-26T05:41:14.629Z,99904.31
2022-12-26T05:44:16.525Z,99911.31
2022-12-26T05:47:19.821Z,99909.63
2022-12-26T05:50:21.723Z,99911.31
2022-12-26T05:53:23.515Z,99917.69
2022-12-26T05:56:25.468Z,99920.66
2022-12-26T05:59:27.748Z,99919.72
2022-12-26T06:02:29.848Z,99923.09
2022-12-26T06:05:32.015Z,99931.78
2022-12-26T06:08:34.410Z,99940.47
2022-12-26T06:11:36.250Z,99931.56
2022-12-26T06:14:38.035Z,99927.97
2022-12-26T06:17:39.843Z,99938.34
2022-12-26T06:20:41.661Z,99937.28
2022-12-26T06:23:44.055Z,99938.13
2022-12-26T06:26:45.978Z,99941.75
2022-12-26T06:29:48.495Z,99941.75
2022-12-26T06:32:50.384Z,99946.19
2022-12-26T06:35:54.643Z,99947.03
2022-12-26T06:38:57.287Z,99954.03
2022-12-26T06:41:59.058Z,99956.69
2022-12-26T06:45:00.916Z,99961.88
2022-12-26T06:48:03.194Z,99962.00
2022-12-26T06:51:06.855Z,99952.13
2022-12-26T06:54:09.548Z,99953.81
2022-12-26T06:57:11.502Z,99963.38
2022-12-26T07:00:14.224Z,99958.91
2022-12-26T07:03:16.306Z,99961.66
2022-12-26T07:06:33.000Z,99959.13
2022-12-26T07:09:34.994Z,99955.28
2022-12-26T07:12:36.812Z,99960.72
2022-12-26T07:15:38.990Z,99960.09
2022-12-26T07:18:41.131Z,99962.22
2022-12-26T07:21:43.533Z,99963.38
2022-12-26T07:24:45.299Z,99960.63
2022-12-26T07:27:47.178Z,99959.03
2022-12-26T07:30:50.400Z,99959.25
2022-12-26T07:33:54.716Z,99960.31
2022-12-26T07:36:56.552Z,99960.41
2022-12-26T07:39:59.327Z,99964.13
2022-12-26T07:43:01.188Z,99965.41
2022-12-26T07:46:03.012Z,99969.53
2022-12-26T07:49:05.147Z,99966.91
2022-12-26T07:52:07.012Z,99972.41
2022-12-26T07:55:09.389Z,99968.06
2022-12-26T07:58:11.316Z,99976.75
2022-12-26T08:01:13.222Z,99972.41
2022-12-26T08:04:15.190Z,99979.41
2022-12-26T08:08:21.180Z,99971.66
2022-12-26T08:11:24.584Z,99977.28
2022-12-26T08:14:26.453Z,99976.22
2022-12-26T08:17:31.436Z,99972.50
2022-12-26T08:20:34.663Z,99967.44
2022-12-26T08:23:36.631Z,99972.09
2022-12-26T08:26:38.557Z,99975.69
2022-12-26T08:29:40.379Z,99974.00
2022-12-26T08:32:46.031Z,99980.25
2022-12-26T08:35:48.333Z,99974.00
2022-12-26T08:38:50.139Z,99974.00
2022-12-26T08:41:52.079Z,99983.75
2022-12-26T08:44:54.176Z,99972.09
2022-12-26T08:47:56.016Z,99977.41
2022-12-26T08:51:09.344Z,99980.25
2022-12-26T08:54:11.559Z,99983.44
2022-12-26T08:57:13.904Z,99985.66
2022-12-26T09:00:16.348Z,99983.97
2022-12-26T09:03:18.358Z,99983.13
2022-12-26T09:06:20.381Z,99985.66
2022-12-26T09:09:22.232Z,99985.78
2022-12-26T09:12:24.145Z,99977.94
2022-12-26T09:15:25.945Z,99974.53
2022-12-26T09:18:27.870Z,99979.94
2022-12-26T09:21:30.478Z,99975.69
2022-12-26T09:24:32.329Z,99983.75
2022-12-26T09:27:34.551Z,99975.06
2022-12-26T09:30:37.079Z,99976.22
2022-12-26T09:33:39.555Z,99981.31
2022-12-26T09:36:41.518Z,99979.41
2022-12-26T09:39:43.330Z,99983.75
2022-12-26T09:46:59.831Z,99970.81
2022-12-26T09:50:07.555Z,99976.13
2022-12-26T09:53:18.034Z,99980.56
2022-12-26T10:00:02.055Z,99975.59
2022-12-26T10:04:29.157Z,99980.13
2022-12-26T10:07:48.558Z,99976.00
2022-12-26T10:11:07.706Z,99973.25
2022-12-26T10:14:21.383Z,99971.34
2022-12-26T10:17:23.692Z,99968.47
2022-12-26T10:20:54.147Z,99965.53
2022-12-26T10:24:15.851Z,99965.41
2022-12-26T10:27:20.025Z,99968.16
2022-12-26T10:30:27.419Z,99970.50
2022-12-26T10:34:04.515Z,99967.63
2022-12-26T10:37:30.905Z,99958.84
2022-12-26T10:40:43.810Z,99959.91
2022-12-26T10:43:46.066Z,99951.22
2022-12-26T10:47:12.774Z,99954.50
2022-12-26T10:50:20.237Z,99944.84
2022-12-26T10:53:24.539Z,99948.34
2022-12-26T10:56:27.570Z,99948.66
2022-12-26T10:59:38.451Z,99957.25
2022-12-26T11:02:40.647Z,99950.47
2022-12-26T11:06:08.179Z,99957.03
2022-12-26T11:09:35.832Z,99958.72
2022-12-26T11:12:50.199Z,99957.69
2022-12-26T11:15:53.582Z,99951.63
2022-12-26T11:18:56.431Z,99958.41
2022-12-26T11:22:26.564Z,99961.06
2022-12-26T11:25:29.480Z,99954.38
2022-12-26T11:28:33.204Z,99959.91
2022-12-26T11:31:35.730Z,99958.84
2022-12-26T11:34:46.075Z,99962.44
2022-12-26T11:37:53.893Z,99965.53
2022-12-26T11:41:14.311Z,99962.97
2022-12-26T11:44:16.111Z,99961.91
2022-12-26T11:47:21.064Z,99968.38
2022-12-26T11:50:26.969Z,99970.94
2022-12-26T11:53:28.873Z,99978.88
2022-12-26T11:56:30.730Z,99978.03
2022-12-26T11:59:32.788Z,99978.78
2022-12-26T12:02:36.975Z,99976.13
2022-12-26T15:30:19.202Z,100004.00
2022-12-26T15:33:33.432Z,100002.38
2022-12-26T15:37:08.082Z,99999.31
2022-12-26T15:40:24.862Z,99996.28
2022-12-26T15:43:58.448Z,100002.22
2022-12-26T15:47:38.831Z,99999.66
2022-12-26T15:50:49.358Z,99999.38
2022-12-26T15:54:15.503Z,100001.16
2022-12-26T15:57:34.420Z,100000.13
2022-12-26T16:00:47.419Z,99994.28
2022-12-26T16:03:56.955Z,99991.53
2022-12-26T16:07:51.901Z,99993.97
2022-12-26T16:11:21.959Z,99991.63
2022-12-26T16:14:31.368Z,100002.00
2022-12-26T16:17:34.113Z,100000.97
2022-12-26T16:20:55.139Z,100001.91
2022-12-26T16:23:57.551Z,100005.63
2022-12-26T16:27:03.472Z,100006.06
2022-12-26T16:30:12.890Z,100006.81
2022-12-26T16:33:15.244Z,100001.31
2022-12-26T16:36:24.699Z,100005.84
2022-12-26T16:39:26.630Z,100002.91
2022-12-26T16:42:31.205Z,99996.88
2022-12-26T16:45:38.186Z,99994.31
2022-12-26T16:48:41.670Z,99991.69
2022-12-26T16:51:43.500Z,99989.97
2022-12-26T16:54:45.291Z,99991.69
2022-12-26T16:57:47.142Z,99989.22
2022-12-26T17:01:14.213Z,99990.81
2022-12-26T17:04:18.362Z,99989.88
2022-12-26T17:07:20.948Z,99993.19
2022-12-26T17:10:29.631Z,99990.31
2022-12-26T17:13:31.703Z,99988.72
2022-12-26T17:16:33.831Z,99988.63
2022-12-26T17:19:37.308Z,99979.72
2022-12-26T17:22:39.225Z,99978.03
2022-12-26T17:25:45.624Z,99974.34
2022-12-26T17:28:51.457Z,99974.13
2022-12-26T17:31:53.325Z,99967.16
2022-12-26T17:34:55.221Z,99970.75
2022-12-26T17:38:02.875Z,99970.84
2022-12-26T17:41:06.917Z,99965.56
2022-12-26T17:44:42.933Z,99970.75
2022-12-26T17:47:45.275Z,99980.25
2022-12-26T17:50:56.183Z,99975.06
2022-12-26T17:53:58.054Z,99971.44
2022-12-26T17:57:00.819Z,99970.59
2022-12-26T18:00:07.418Z,99971.34
2022-12-26T18:03:09.444Z,99973.91
2022-12-26T18:06:16.547Z,99968.72
2022-12-26T18:09:29.163Z,99952.19
2022-12-26T18:12:31.097Z,99959.28
2022-12-26T18:15:32.895Z,99960.75
2022-12-26T18:18:37.615Z,99950.19
2022-12-26T18:21:40.289Z,99964.34
2022-12-26T18:24:42.239Z,99951.03
2022-12-26T18:27:44.422Z,99945.72
2022-12-26T18:30:46.923Z,99941.28
2022-12-26T18:33:48.811Z,99949.34
2022-12-26T18:36:50.853Z,99949.13
2022-12-26T18:39:53.065Z,99946.28
2022-12-26T18:42:55.591Z,99945.31
2022-12-26T18:45:58.777Z,99942.56
2022-12-26T18:49:00.837Z,99937.19
2022-12-26T18:52:03.539Z,99936.44
2022-12-26T18:55:05.803Z,99931.25
2022-12-26T18:58:08.172Z,99935.78
2022-12-26T19:01:14.255Z,99929.22
2022-12-26T19:04:16.696Z,99917.56
2022-12-26T19:07:20.483Z,99923.59
2022-12-26T19:10:25.869Z,99936.84
2022-12-26T19:13:28.253Z,99934.19
2022-12-26T19:16:30.140Z,99934.19
2022-12-26T19:19:32.540Z,99939.38
2022-12-26T19:22:34.764Z,99932.19
2022-12-26T19:25:36.605Z,99926.06
2022-12-26T19:28:39.221Z,99926.78
2022-12-26T19:31:41.749Z,99918.00
2022-12-26T19:34:43.612Z,99914.72
2022-12-26T19:37:45.949Z,99915.66
2022-12-26T19:40:47.780Z,99909.63
2022-12-26T19:43:56.139Z,99918.09
2022-12-26T19:47:11.453Z,99916.41
2022-12-26T19:50:14.791Z,99918.09
2022-12-26T19:53:16.759Z,99912.59
2022-12-26T19:56:23.934Z,99917.91
2022-12-26T19:59:26.439Z,99909.84
2022-12-26T20:02:28.539Z,99918.66
2022-12-26T20:05:30.458Z,99916.00
2022-12-26T20:08:32.336Z,99912.50
2022-12-26T20:11:37.506Z,99915.16
2022-12-26T20:14:39.347Z,99916.66
2022-12-26T20:17:41.230Z,99922.88
2022-12-26T20:20:43.311Z,99919.28
2022-12-26T20:23:45.758Z,99919.09
2022-12-26T20:26:49.323Z,99921.72
2022-12-26T20:29:51.227Z,99921.63
2022-12-26T20:32:53.094Z,99926.81
2022-12-26T20:36:02.121Z,99921.31
2022-12-26T20:39:07.156Z,99922.91
2022-12-26T20:42:09.109Z,99917.50
2022-12-26T20:45:11.210Z,99910.41
2022-12-26T20:48:13.373Z,99918.34
2022-12-26T20:51:20.901Z,99916.44
2022-12-26T20:54:22.933Z,99919.94
2022-12-26T20:57:24.770Z,99924.38
2022-12-26T21:00:26.679Z,99917.19
2022-12-26T21:03:30.361Z,99907.34
2022-12-26T21:06:35.309Z,99907.34
2022-12-26T21:09:42.448Z,99895.78
2022-12-26T21:12:47.675Z,99895.78
2022-12-26T21:15:49.695Z,99890.28
2022-12-26T21:18:51.786Z,99881.81
2022-12-26T21:21:55.366Z,99880.22
2022-12-26T21:24:58.276Z,99870.59
2022-12-26T21:28:00.039Z,99861.78
2022-12-26T21:31:02.675Z,99856.59
2022-12-26T21:34:05.817Z,99855.03
2022-12-26T21:37:26.077Z,99856.81
2022-12-26T21:40:28.010Z,99850.88
2022-12-26T21:43:30.588Z,99855.03
2022-12-26T21:46:32.635Z,99854.91
2022-12-26T21:49:35.033Z,99844.97
2022-12-26T21:52:36.886Z,99852.25
2022-12-26T21:55:38.848Z,99857.56
2022-12-26T21:58:59.644Z,99845.16
2022-12-26T22:02:01.720Z,99844.31
2022-12-26T22:05:04.068Z,99845.06
2022-12-26T22:08:08.471Z,99845.91
2022-12-26T22:11:36.065Z,99847.41
2022-12-26T22:14:37.957Z,99841.13
2022-12-26T22:17:39.774Z,99844.75
2022-12-26T22:20:41.720Z,99840.28
2022-12-26T22:23:44.641Z,99842.50
2022-12-26T22:26:46.501Z,99837.44
2022-12-26T22:29:48.443Z,99840.72
2022-12-26T22:32:50.268Z,99838.16
2022-12-26T22:35:52.267Z,99840.72
2022-12-26T22:38:54.449Z,99838.81
2022-12-26T22:42:02.129Z,99843.88
2022-12-26T22:45:04.714Z,99835.09
2022-12-26T22:48:06.683Z,99831.38
2022-12-26T22:51:09.530Z,99832.13
2022-12-26T22:54:11.369Z,99826.94
2022-12-26T22:57:13.957Z,99824.41
2022-12-26T23:00:16.095Z,99832.22
2022-12-26T23:03:18.889Z,99829.38
2022-12-26T23:06:24.597Z,99837.22
2022-12-26T23:09:26.772Z,99831.81
2022-12-26T23:12:44.114Z,99836.03
2022-12-26T23:16:09.466Z,99830.75
2022-12-26T23:19:35.084Z,99818.56
2022-12-26T23:22:37.148Z,99817.94
2022-12-26T23:25:39.715Z,99812.53
2022-12-26T23:29:00.507Z,99821.19
2022-12-26T23:32:03.329Z,99811.47
2022-12-26T23:35:06.466Z,99827.34
2022-12-26T23:38:08.336Z,99810.50
2022-12-26T23:41:10.196Z,99811.34
2022-12-26T23:44:12.246Z,99812.31
2022-12-26T23:47:14.141Z,99805.31
2022-12-26T23:50:17.294Z,99801.81
2022-12-26T23:53:19.072Z,99799.16
2022-12-26T23:56:21.172Z,99800.13
2022-12-26T23:59:23.070Z,99799.91
